createdAt,value
2019-03-26T00:05:33.595Z,99.90
2019-03-26T00:08:14.632Z,99.90
2019-03-26T00:10:55.942Z,99.90
2019-03-26T00:13:37.313Z,99.90
2019-03-26T00:16:18.428Z,99.90
2019-03-26T00:18:59.794Z,99.90
2019-03-26T00:21:40.537Z,99.90
2019-03-26T00:24:21.634Z,99.90
2019-03-26T00:27:02.818Z,99.90
2019-03-26T00:29:43.959Z,99.90
2019-03-26T00:32:25.209Z,99.90
2019-03-26T00:35:06.235Z,99.90
2019-03-26T00:37:47.084Z,99.90
2019-03-26T00:40:27.657Z,99.90
2019-03-26T00:46:16.277Z,99.90
2019-03-26T00:48:57.146Z,99.90
2019-03-26T00:51:45.697Z,99.90
2019-03-26T00:54:26.488Z,99.90
2019-03-26T00:57:07.421Z,99.90
2019-03-26T00:59:48.382Z,99.90
2019-03-26T01:02:29.876Z,99.90
2019-03-26T01:05:11.339Z,99.90
2019-03-26T01:07:52.462Z,99.90
2019-03-26T01:10:33.848Z,99.90
2019-03-26T01:13:13.462Z,99.90
2019-03-26T01:16:02.014Z,99.90
2019-03-26T01:18:50.643Z,99.90
2019-03-26T01:21:39.152Z,99.90
2019-03-26T01:33:10.375Z,99.90
2019-03-26T01:35:58.902Z,99.90
2019-03-26T01:41:41.553Z,99.90
2019-03-26T01:44:30.149Z,99.90
2019-03-26T01:47:18.709Z,99.90
2019-03-26T01:50:07.545Z,99.90
2019-03-26T01:52:56.203Z,99.90
2019-03-26T01:55:44.751Z,99.90
2019-03-26T01:58:33.299Z,99.90
2019-03-26T02:01:21.821Z,99.90
2019-03-26T02:07:04.275Z,99.90
2019-03-26T02:09:52.826Z,99.90
2019-03-26T02:15:41.476Z,99.90
2019-03-26T02:18:22.693Z,99.90
2019-03-26T02:21:04.024Z,99.90
2019-03-26T02:23:45.316Z,99.90
2019-03-26T02:26:26.536Z,99.90
2019-03-26T02:29:07.389Z,99.90
2019-03-26T02:31:48.659Z,99.90
2019-03-26T02:37:38.598Z,99.90
2019-03-26T02:40:18.975Z,99.90
2019-03-26T02:42:59.476Z,99.90
2019-03-26T02:45:40.330Z,99.90
2019-03-26T02:48:21.694Z,99.90
2019-03-26T02:51:02.703Z,99.90
2019-03-26T02:56:50.972Z,99.90
2019-03-26T02:59:31.901Z,99.90
2019-03-26T03:02:13.139Z,99.90
2019-03-26T03:04:53.811Z,99.90
2019-03-26T03:07:35.125Z,99.90
2019-03-26T03:10:16.474Z,99.90
2019-03-26T03:12:57.631Z,99.90
2019-03-26T03:15:38.793Z,99.90
2019-03-26T03:18:19.617Z,99.90
2019-03-26T03:21:00.841Z,99.90
2019-03-26T03:23:42.051Z,99.90
2019-03-26T03:26:23.023Z,99.90
2019-03-26T03:29:04.179Z,99.90
2019-03-26T03:31:44.827Z,99.90
2019-03-26T03:34:25.939Z,99.90
2019-03-26T03:37:07.527Z,99.90
2019-03-26T03:39:48.718Z,99.90
2019-03-26T03:42:29.893Z,99.90
2019-03-26T03:45:10.666Z,99.90
2019-03-26T03:47:51.665Z,99.90
2019-03-26T03:50:32.715Z,99.90
2019-03-26T03:53:14.037Z,99.90
2019-03-26T03:55:55.009Z,99.90
2019-03-26T03:58:35.977Z,99.90
2019-03-26T04:01:16.590Z,99.90
2019-03-26T04:03:57.335Z,99.90
2019-03-26T04:06:38.405Z,99.90
2019-03-26T04:09:19.253Z,99.90
2019-03-26T04:12:00.646Z,99.90
2019-03-26T04:14:41.377Z,99.90
2019-03-26T04:17:22.620Z,99.90
2019-03-26T04:20:03.854Z,99.90
2019-03-26T04:22:45.270Z,99.90
2019-03-26T04:25:26.509Z,99.90
2019-03-26T04:31:13.393Z,99.90
2019-03-26T04:33:54.620Z,99.90
2019-03-26T04:36:35.163Z,99.90
2019-03-26T04:39:16.271Z,99.90
2019-03-26T04:41:57.552Z,99.90
2019-03-26T04:44:38.767Z,99.90
2019-03-26T04:47:19.457Z,99.90
2019-03-26T04:50:00.749Z,99.90
2019-03-26T04:52:42.036Z,99.90
2019-03-26T04:55:26.425Z,99.90
2019-03-26T04:58:07.005Z,99.90
2019-03-26T05:00:48.136Z,99.90
2019-03-26T05:03:29.264Z,99.90
2019-03-26T05:06:10.141Z,99.90
2019-03-26T05:08:51.131Z,99.90
2019-03-26T05:11:31.913Z,99.90
2019-03-26T05:14:13.527Z,99.90
2019-03-26T05:16:54.299Z,99.90
2019-03-26T05:19:35.120Z,99.90
2019-03-26T05:22:24.006Z,99.90
2019-03-26T05:24:59.136Z,99.90
2019-03-26T05:27:45.428Z,99.90
2019-03-26T05:30:22.930Z,99.90
2019-03-26T05:33:02.745Z,99.90
2019-03-26T05:38:45.396Z,99.90
2019-03-26T05:41:34.025Z,99.90
2019-03-26T05:47:17.967Z,99.90
2019-03-26T05:59:23.357Z,99.90
2019-03-26T06:05:06.163Z,99.90
2019-03-26T06:07:54.673Z,99.90
2019-03-26T06:10:43.228Z,99.90
2019-03-26T06:22:15.098Z,99.90
2019-03-26T06:28:11.244Z,99.90
2019-03-26T06:34:10.379Z,99.90
2019-03-26T06:36:57.854Z,99.90
2019-03-26T06:39:46.386Z,99.90
2019-03-26T06:42:35.038Z,99.90
2019-03-26T06:51:12.095Z,99.90
2019-03-26T06:59:55.455Z,99.90
2019-03-26T07:05:38.214Z,99.90
2019-03-26T07:08:26.861Z,99.90
2019-03-26T07:11:15.475Z,99.90
2019-03-26T07:16:58.330Z,99.90
2019-03-26T07:19:46.887Z,99.90
2019-03-26T07:22:35.404Z,99.90
2019-03-26T07:25:23.962Z,99.90
2019-03-26T07:28:12.557Z,99.90
2019-03-26T07:31:01.142Z,99.90
2019-03-26T07:36:49.998Z,99.90
2019-03-26T07:39:31.188Z,99.90
2019-03-26T07:42:12.374Z,99.90
2019-03-26T07:44:52.014Z,99.90
2019-03-26T07:47:40.577Z,99.90
2019-03-26T07:53:36.919Z,99.90
2019-03-26T07:59:50.679Z,99.90
2019-03-26T08:11:35.239Z,99.90
2019-03-26T08:17:09.538Z,99.90
2019-03-26T08:19:58.091Z,99.90
2019-03-26T08:22:46.643Z,99.90
2019-03-26T08:31:37.202Z,99.90
2019-03-26T08:40:28.752Z,99.90
2019-03-26T08:43:09.504Z,99.90
2019-03-26T08:45:50.250Z,99.90
2019-03-26T08:48:31.004Z,99.90
2019-03-26T08:51:12.000Z,99.90
2019-03-26T08:53:53.383Z,99.90
2019-03-26T08:56:34.202Z,99.90
2019-03-26T08:59:15.219Z,99.90
2019-03-26T09:01:56.099Z,99.90
2019-03-26T09:04:37.369Z,99.90
2019-03-26T09:07:18.207Z,99.90
2019-03-26T09:09:58.772Z,99.90
2019-03-26T09:12:40.139Z,99.90
2019-03-26T09:15:21.292Z,99.90
2019-03-26T09:18:02.676Z,99.90
2019-03-26T09:20:44.032Z,99.90
2019-03-26T09:23:24.750Z,99.90
2019-03-26T09:26:06.049Z,99.90
2019-03-26T09:28:47.955Z,99.90
2019-03-26T09:31:29.074Z,99.90
2019-03-26T09:34:10.451Z,99.90
2019-03-26T09:36:51.833Z,99.90
2019-03-26T09:39:33.279Z,99.90
2019-03-26T09:42:14.517Z,99.90
2019-03-26T09:44:56.705Z,99.90
2019-03-26T09:47:38.078Z,99.90
2019-03-26T09:50:18.905Z,99.90
2019-03-26T09:52:59.585Z,99.90
2019-03-26T09:55:40.878Z,99.90
2019-03-26T09:58:21.765Z,99.90
2019-03-26T10:01:02.519Z,99.90
2019-03-26T10:03:43.398Z,99.90
2019-03-26T10:06:24.277Z,99.90
2019-03-26T10:09:05.226Z,99.90
2019-03-26T10:11:45.999Z,99.90
2019-03-26T10:14:27.259Z,99.90
2019-03-26T10:17:08.340Z,99.90
2019-03-26T10:19:49.393Z,99.90
2019-03-26T10:22:30.274Z,99.90
2019-03-26T10:25:11.673Z,99.90
2019-03-26T10:27:53.144Z,99.90
2019-03-26T10:30:37.173Z,99.90
2019-03-26T10:39:47.872Z,99.90
2019-03-26T10:42:36.549Z,99.90
2019-03-26T10:45:25.159Z,99.90
2019-03-26T10:48:13.879Z,99.90
2019-03-26T10:54:10.223Z,99.90
2019-03-26T11:00:06.727Z,99.90
2019-03-26T11:06:03.087Z,99.90
2019-03-26T11:08:51.683Z,99.90
2019-03-26T11:11:40.223Z,99.90
2019-03-26T11:14:31.686Z,99.90
2019-03-26T11:26:02.992Z,99.90
2019-03-26T11:31:51.714Z,99.90
2019-03-26T11:34:33.142Z,99.90
2019-03-26T11:37:14.301Z,99.90
2019-03-26T11:39:54.882Z,99.90
2019-03-26T11:42:35.984Z,99.90
2019-03-26T11:45:16.983Z,99.90
2019-03-26T11:51:17.737Z,97.70
2019-03-26T11:53:58.639Z,99.30
2019-03-26T11:56:39.785Z,99.40
2019-03-26T11:59:20.383Z,93.30
2019-03-26T12:02:01.662Z,92.50
2019-03-26T12:04:50.293Z,92.40
2019-03-26T12:10:46.596Z,92.50
2019-03-26T12:13:35.107Z,92.40
2019-03-26T12:16:23.638Z,93.20
2019-03-26T12:19:12.172Z,93.60
2019-03-26T12:22:00.729Z,93.80
2019-03-26T12:24:49.317Z,94.40
2019-03-26T12:33:47.692Z,94.30
2019-03-26T12:36:40.270Z,95.90
2019-03-26T12:42:34.285Z,94.90
2019-03-26T12:51:24.421Z,90.60
2019-03-26T13:00:00.520Z,75.70
2019-03-26T13:02:49.091Z,76.40
2019-03-26T13:08:31.431Z,78.00
2019-03-26T13:11:19.953Z,78.90
2019-03-26T13:19:57.893Z,80.50
2019-03-26T13:22:46.409Z,78.00
2019-03-26T13:25:34.956Z,77.50
2019-03-26T13:46:15.691Z,69.50
2019-03-26T13:48:56.310Z,67.80
2019-03-26T13:51:37.461Z,68.10
2019-03-26T13:54:18.185Z,68.70
2019-03-26T13:56:59.235Z,67.00
2019-03-26T13:59:39.979Z,67.90
2019-03-26T14:02:21.580Z,71.20
2019-03-26T14:05:03.015Z,72.90
2019-03-26T14:07:44.044Z,73.00
2019-03-26T14:10:25.062Z,72.90
2019-03-26T14:13:05.879Z,74.10
2019-03-26T14:15:46.824Z,72.40
2019-03-26T14:18:27.367Z,71.80
2019-03-26T14:21:08.013Z,72.70
2019-03-26T14:23:48.764Z,73.80
2019-03-26T14:26:30.170Z,73.10
2019-03-26T14:29:11.616Z,71.50
2019-03-26T14:31:53.112Z,70.60
2019-03-26T14:34:33.711Z,71.30
2019-03-26T14:37:14.611Z,73.20
2019-03-26T14:39:55.985Z,72.80
2019-03-26T14:42:36.958Z,71.80
2019-03-26T14:45:18.026Z,69.80
2019-03-26T14:47:59.160Z,70.50
2019-03-26T14:50:40.455Z,72.00
2019-03-26T14:53:21.416Z,71.80
2019-03-26T14:56:02.266Z,73.70
2019-03-26T14:58:43.489Z,72.00
2019-03-26T15:01:24.111Z,72.80
2019-03-26T15:04:04.996Z,73.10
2019-03-26T15:06:45.698Z,73.00
2019-03-26T15:09:26.752Z,71.90
2019-03-26T15:12:08.167Z,73.00
2019-03-26T15:14:48.681Z,72.20
2019-03-26T15:17:29.684Z,70.20
2019-03-26T15:20:10.300Z,69.50
2019-03-26T15:22:50.896Z,68.50
2019-03-26T15:25:31.602Z,69.00
2019-03-26T15:28:12.895Z,69.70
2019-03-26T15:30:53.708Z,71.40
2019-03-26T15:33:35.246Z,71.30
2019-03-26T15:36:15.853Z,72.50
2019-03-26T15:38:56.960Z,70.20
2019-03-26T15:41:37.508Z,70.50
2019-03-26T15:44:18.484Z,69.50
2019-03-26T15:46:58.354Z,69.10
2019-03-26T15:52:54.657Z,71.40
2019-03-26T15:55:43.310Z,72.50
2019-03-26T16:01:39.636Z,75.20
2019-03-26T16:07:22.685Z,74.50
2019-03-26T16:10:11.341Z,74.70
2019-03-26T16:12:59.935Z,75.10
2019-03-26T16:15:51.647Z,73.40
2019-03-26T16:18:38.783Z,74.10
2019-03-26T16:21:27.399Z,73.10
2019-03-26T16:24:16.001Z,72.50
2019-03-26T16:27:04.512Z,71.70
2019-03-26T16:29:53.050Z,72.50
2019-03-26T16:44:31.744Z,74.20
2019-03-26T16:47:20.277Z,74.70
2019-03-26T16:53:09.830Z,74.80
2019-03-26T16:55:49.539Z,74.00
2019-03-26T17:04:39.861Z,75.10
2019-03-26T17:10:22.861Z,75.40
2019-03-26T17:13:11.387Z,75.50
2019-03-26T17:18:53.652Z,76.60
2019-03-26T17:24:36.732Z,76.80
2019-03-26T17:39:03.680Z,77.40
2019-03-26T17:47:47.053Z,79.30
2019-03-26T17:50:27.656Z,79.30
2019-03-26T17:53:07.421Z,78.20
2019-03-26T18:04:40.067Z,78.50
2019-03-26T18:07:28.591Z,79.40
2019-03-26T18:13:11.751Z,79.80
2019-03-26T18:22:02.003Z,87.70
2019-03-26T18:24:50.656Z,88.50
2019-03-26T18:27:39.249Z,89.20
2019-03-26T18:33:22.507Z,90.00
2019-03-26T18:36:11.039Z,87.00
2019-03-26T18:47:41.878Z,85.00
2019-03-26T18:53:38.180Z,84.70
2019-03-26T18:56:18.869Z,85.00
2019-03-26T18:58:59.596Z,85.50
2019-03-26T19:01:41.059Z,86.10
2019-03-26T19:04:21.608Z,85.80
2019-03-26T19:07:02.481Z,85.80
2019-03-26T19:09:43.230Z,85.70
2019-03-26T19:12:23.906Z,85.10
2019-03-26T19:15:04.893Z,85.20
2019-03-26T19:17:46.163Z,86.00
2019-03-26T19:20:27.018Z,85.90
2019-03-26T19:23:08.496Z,86.50
2019-03-26T19:25:49.519Z,86.70
2019-03-26T19:28:30.059Z,87.70
2019-03-26T19:31:11.021Z,87.90
2019-03-26T19:33:51.738Z,88.50
2019-03-26T19:36:33.116Z,89.40
2019-03-26T19:39:14.345Z,90.00
2019-03-26T19:45:03.662Z,89.90
2019-03-26T19:47:45.100Z,90.00
2019-03-26T19:50:25.882Z,90.30
2019-03-26T19:53:06.574Z,90.80
2019-03-26T19:55:47.268Z,90.60
2019-03-26T19:58:28.314Z,90.60
2019-03-26T20:01:08.898Z,90.30
2019-03-26T20:03:48.888Z,90.30
2019-03-26T20:06:37.596Z,90.80
2019-03-26T20:12:14.947Z,91.10
2019-03-26T20:26:56.484Z,91.70
2019-03-26T20:35:46.569Z,91.80
2019-03-26T20:41:42.848Z,91.80
2019-03-26T20:50:51.492Z,92.00
2019-03-26T21:02:43.778Z,92.60
2019-03-26T21:05:32.406Z,92.50
2019-03-26T21:08:13.088Z,92.60
2019-03-26T21:10:52.700Z,92.90
2019-03-26T21:20:07.277Z,92.80
2019-03-26T21:22:55.803Z,92.90
2019-03-26T21:28:38.479Z,92.60
2019-03-26T21:34:29.824Z,92.70
2019-03-26T21:46:12.630Z,92.80
2019-03-26T21:54:50.620Z,92.90
2019-03-26T21:57:32.769Z,92.80
2019-03-26T22:00:14.436Z,92.50
2019-03-26T22:02:55.938Z,92.50
2019-03-26T22:05:37.046Z,92.60
2019-03-26T22:08:17.619Z,92.60
2019-03-26T22:10:58.328Z,92.70
2019-03-26T22:13:39.358Z,92.60
2019-03-26T22:16:19.902Z,92.80
2019-03-26T22:19:00.563Z,92.80
2019-03-26T22:21:41.913Z,92.70
2019-03-26T22:24:23.183Z,93.00
2019-03-26T22:27:03.905Z,93.20
2019-03-26T22:29:44.509Z,93.00
2019-03-26T22:32:25.103Z,93.40
2019-03-26T22:35:05.773Z,93.20
2019-03-26T22:37:46.319Z,93.40
2019-03-26T22:40:27.669Z,93.60
2019-03-26T22:43:08.326Z,94.00
2019-03-26T22:45:48.923Z,94.50
2019-03-26T22:51:12.560Z,94.40
2019-03-26T22:53:53.938Z,94.00
2019-03-26T22:56:34.798Z,94.50
2019-03-26T22:59:15.440Z,94.60
2019-03-26T23:01:56.365Z,94.70
2019-03-26T23:04:37.820Z,94.70
2019-03-26T23:07:19.201Z,94.90
2019-03-26T23:09:59.709Z,95.20
2019-03-26T23:12:40.414Z,95.30
2019-03-26T23:15:21.097Z,95.50
2019-03-26T23:18:01.904Z,95.90
2019-03-26T23:23:47.603Z,96.00
2019-03-26T23:26:30.761Z,96.40
2019-03-26T23:32:31.533Z,97.00
2019-03-26T23:35:12.324Z,97.20
2019-03-26T23:37:53.105Z,97.60
2019-03-26T23:40:34.244Z,97.30
2019-03-26T23:43:15.037Z,97.40
2019-03-26T23:45:56.340Z,97.70
2019-03-26T23:48:37.683Z,97.90
2019-03-26T23:51:18.776Z,98.10
2019-03-26T23:54:00.155Z,99.10
2019-03-26T23:56:40.756Z,99.90
